createdAt,value
2018-02-10T00:01:23.118Z,127.50
2018-02-10T00:03:51.560Z,134.00
2018-02-10T00:06:20.115Z,121.83
2018-02-10T00:08:48.460Z,122.80
2018-02-10T00:11:16.874Z,127.03
2018-02-10T00:13:45.321Z,123.40
2018-02-10T00:16:13.693Z,126.03
2018-02-10T00:18:41.999Z,132.07
2018-02-10T00:21:10.315Z,119.03
2018-02-10T00:23:38.646Z,118.00
2018-02-10T00:26:07.046Z,129.20
2018-02-10T00:28:35.371Z,125.13
2018-02-10T00:31:03.707Z,126.07
2018-02-10T00:33:32.053Z,119.50
2018-02-10T00:36:00.425Z,130.53
2018-02-10T00:38:28.970Z,119.57
2018-02-10T00:40:57.351Z,126.67
2018-02-10T00:43:27.457Z,129.73
2018-02-10T00:45:57.373Z,128.73
2018-02-10T00:48:25.669Z,120.23
2018-02-10T00:50:54.013Z,121.27
2018-02-10T00:53:22.361Z,125.23
2018-02-10T00:55:50.686Z,124.33
2018-02-10T00:58:19.246Z,136.67
2018-02-10T01:00:47.598Z,130.17
2018-02-10T01:03:15.886Z,120.47
2018-02-10T01:05:44.349Z,123.70
2018-02-10T01:08:12.690Z,128.97
2018-02-10T01:10:41.121Z,126.60
2018-02-10T01:13:09.439Z,121.50
2018-02-10T01:15:37.894Z,123.17
2018-02-10T01:19:09.275Z,131.17
2018-02-10T01:21:37.636Z,127.50
2018-02-10T01:24:05.965Z,135.43
2018-02-10T01:26:34.310Z,131.57
2018-02-10T01:29:02.710Z,133.90
2018-02-10T01:31:31.062Z,126.03
2018-02-10T01:33:59.395Z,132.60
2018-02-10T01:36:27.843Z,133.17
2018-02-10T01:38:56.229Z,126.50
2018-02-10T01:41:24.998Z,126.97
2018-02-10T01:43:53.287Z,123.97
2018-02-10T01:46:21.646Z,131.67
2018-02-10T01:48:49.950Z,131.37
2018-02-10T01:51:18.327Z,129.73
2018-02-10T01:53:46.729Z,129.07
2018-02-10T01:56:15.223Z,128.13
2018-02-10T01:58:43.682Z,120.60
2018-02-10T02:01:12.004Z,129.93
2018-02-10T02:03:40.539Z,133.77
2018-02-10T02:06:08.940Z,129.30
2018-02-10T02:08:37.398Z,133.23
2018-02-10T02:11:05.758Z,132.03
2018-02-10T02:13:34.055Z,137.57
2018-02-10T02:16:02.383Z,131.07
2018-02-10T02:18:30.777Z,129.57
2018-02-10T02:20:59.452Z,136.77
2018-02-10T02:23:27.778Z,126.17
2018-02-10T02:25:56.204Z,132.00
2018-02-10T02:28:24.610Z,131.67
2018-02-10T02:30:53.056Z,140.83
2018-02-10T02:33:21.507Z,125.17
2018-02-10T02:35:49.837Z,136.93
2018-02-10T02:38:18.318Z,137.80
2018-02-10T02:40:46.963Z,130.93
2018-02-10T02:43:15.323Z,130.73
2018-02-10T02:45:43.674Z,132.17
2018-02-10T02:48:12.213Z,140.30
2018-02-10T02:50:40.535Z,133.23
2018-02-10T02:53:08.925Z,131.93
2018-02-10T02:55:37.256Z,130.60
2018-02-10T02:58:05.600Z,125.40
2018-02-10T03:00:33.906Z,131.43
2018-02-10T03:03:02.203Z,131.70
2018-02-10T03:05:30.672Z,132.63
2018-02-10T03:07:58.994Z,124.67
2018-02-10T03:10:27.314Z,122.07
2018-02-10T03:12:55.636Z,133.40
2018-02-10T03:15:24.806Z,135.50
2018-02-10T03:17:54.319Z,135.73
2018-02-10T03:20:22.700Z,137.90
2018-02-10T03:22:51.105Z,129.00
2018-02-10T03:25:19.419Z,132.20
2018-02-10T03:27:47.751Z,134.73
2018-02-10T03:30:18.256Z,139.30
2018-02-10T03:32:47.760Z,136.07
2018-02-10T03:35:17.561Z,124.87
2018-02-10T03:37:46.005Z,129.67
2018-02-10T03:40:14.377Z,132.63
2018-02-10T03:42:42.786Z,132.87
2018-02-10T03:45:11.152Z,135.20
2018-02-10T03:47:39.439Z,133.20
2018-02-10T03:50:07.790Z,132.30
2018-02-10T03:52:36.235Z,146.10
2018-02-10T03:55:04.626Z,136.37
2018-02-10T03:57:32.975Z,142.80
2018-02-10T04:00:01.229Z,136.37
2018-02-10T04:02:29.575Z,129.57
2018-02-10T04:04:58.022Z,132.23
2018-02-10T04:07:26.538Z,132.70
2018-02-10T04:09:54.814Z,134.27
2018-02-10T04:12:23.231Z,129.43
2018-02-10T04:14:51.808Z,139.00
2018-02-10T04:17:20.269Z,135.37
2018-02-10T04:19:48.551Z,133.17
2018-02-10T04:22:16.910Z,134.23
2018-02-10T04:24:45.219Z,129.30
2018-02-10T04:27:13.617Z,131.63
2018-02-10T04:29:42.034Z,128.20
2018-02-10T04:32:10.430Z,135.27
2018-02-10T04:34:38.711Z,134.77
2018-02-10T04:37:07.082Z,138.23
2018-02-10T04:39:35.446Z,132.90
2018-02-10T04:42:03.779Z,134.07
2018-02-10T04:44:32.102Z,138.27
2018-02-10T04:47:00.416Z,135.03
2018-02-10T04:49:28.686Z,135.23
2018-02-10T04:51:57.146Z,133.53
2018-02-10T04:54:26.224Z,151.17
2018-02-10T04:56:54.603Z,127.40
2018-02-10T04:59:22.906Z,142.17
2018-02-10T05:07:42.442Z,131.70
2018-02-10T05:10:11.007Z,131.43
2018-02-10T05:12:39.569Z,140.03
2018-02-10T05:15:08.292Z,134.93
2018-02-10T05:17:36.991Z,135.80
2018-02-10T05:20:07.183Z,138.63
2018-02-10T05:22:35.701Z,127.17
2018-02-10T05:25:04.432Z,127.13
2018-02-10T05:27:33.334Z,128.37
2018-02-10T05:30:02.002Z,130.27
2018-02-10T05:32:30.873Z,129.30
2018-02-10T05:34:59.561Z,138.23
2018-02-10T05:37:28.156Z,130.90
2018-02-10T05:39:56.639Z,124.27
2018-02-10T05:42:25.552Z,132.00
2018-02-10T05:44:54.044Z,142.37
2018-02-10T05:47:22.579Z,147.90
2018-02-10T05:49:51.356Z,134.27
2018-02-10T05:52:19.973Z,132.97
2018-02-10T05:54:48.895Z,142.83
2018-02-10T05:57:18.161Z,133.43
2018-02-10T05:59:47.115Z,129.77
2018-02-10T06:02:16.188Z,130.33
2018-02-10T06:04:44.696Z,131.70
2018-02-10T06:07:13.348Z,129.17
2018-02-10T06:09:42.704Z,136.67
2018-02-10T06:12:11.515Z,140.50
2018-02-10T06:14:41.022Z,132.00
2018-02-10T06:17:09.768Z,132.97
2018-02-10T06:19:40.464Z,132.90
2018-02-10T06:22:10.896Z,137.33
2018-02-10T06:24:40.404Z,129.07
2018-02-10T06:27:09.781Z,129.97
2018-02-10T06:29:38.364Z,135.63
2018-02-10T06:32:07.715Z,129.10
2018-02-10T06:34:42.817Z,126.63
2018-02-10T06:37:17.935Z,129.37
2018-02-10T06:39:46.794Z,133.93
2018-02-10T06:42:15.357Z,129.90
2018-02-10T06:44:43.997Z,121.10
2018-02-10T06:47:12.609Z,128.93
2018-02-10T06:49:41.215Z,130.00
2018-02-10T06:52:09.704Z,125.60
2018-02-10T06:54:38.389Z,136.80
2018-02-10T06:57:07.311Z,130.53
2018-02-10T06:59:35.979Z,127.23
2018-02-10T07:08:52.223Z,124.90
2018-02-10T07:11:20.991Z,144.10
2018-02-10T07:13:49.815Z,124.77
2018-02-10T07:16:18.402Z,123.53
2018-02-10T07:18:47.532Z,123.57
2018-02-10T07:21:16.110Z,134.87
2018-02-10T07:23:44.564Z,124.00
2018-02-10T07:26:13.231Z,129.50
2018-02-10T07:28:41.809Z,129.50
2018-02-10T07:31:10.404Z,122.53
2018-02-10T07:33:39.260Z,125.57
2018-02-10T07:36:07.779Z,121.43
2018-02-10T07:38:36.288Z,119.73
2018-02-10T07:41:04.848Z,135.83
2018-02-10T07:43:33.433Z,124.83
2018-02-10T07:46:02.300Z,123.40
2018-02-10T07:48:31.168Z,130.20
2018-02-10T07:50:59.919Z,127.70
2018-02-10T07:53:28.487Z,119.57
2018-02-10T07:55:56.988Z,125.00
2018-02-10T07:58:25.548Z,125.60
2018-02-10T08:00:54.080Z,124.60
2018-02-10T08:03:22.864Z,122.93
2018-02-10T08:05:51.365Z,123.40
2018-02-10T08:08:20.097Z,130.83
2018-02-10T08:10:48.636Z,120.30
2018-02-10T08:13:17.223Z,120.50
2018-02-10T08:15:45.958Z,128.23
2018-02-10T08:18:14.521Z,120.27
2018-02-10T08:20:43.117Z,129.37
2018-02-10T08:23:11.637Z,119.93
2018-02-10T08:25:40.248Z,126.83
2018-02-10T08:28:08.916Z,121.70
2018-02-10T08:30:37.420Z,128.97
2018-02-10T08:33:06.276Z,131.93
2018-02-10T08:35:34.804Z,127.60
2018-02-10T08:38:03.509Z,125.93
2018-02-10T08:40:32.154Z,134.60
2018-02-10T08:43:00.722Z,119.97
2018-02-10T08:45:29.523Z,122.43
2018-02-10T08:47:57.993Z,129.33
2018-02-10T08:50:26.708Z,126.00
2018-02-10T08:52:55.338Z,122.47
2018-02-10T08:55:23.889Z,137.67
2018-02-10T08:57:52.502Z,159.27
2018-02-10T09:00:21.224Z,144.57
2018-02-10T09:02:49.903Z,134.83
2018-02-10T09:05:18.606Z,129.40
2018-02-10T09:07:47.454Z,132.90
2018-02-10T09:10:15.968Z,131.13
2018-02-10T09:12:44.555Z,126.87
2018-02-10T09:15:13.093Z,123.13
2018-02-10T09:17:43.855Z,140.37
2018-02-10T09:20:13.347Z,134.70
2018-02-10T09:22:42.023Z,128.57
2018-02-10T09:25:11.679Z,132.90
2018-02-10T09:27:40.384Z,124.90
2018-02-10T09:30:08.923Z,139.20
2018-02-10T09:32:37.646Z,137.63
2018-02-10T09:35:06.308Z,127.77
2018-02-10T09:37:34.972Z,131.73
2018-02-10T09:40:03.784Z,136.13
2018-02-10T09:42:32.350Z,127.50
2018-02-10T09:45:01.069Z,126.60
2018-02-10T09:47:29.762Z,129.03
2018-02-10T09:49:58.399Z,122.37
2018-02-10T09:52:26.912Z,134.00
2018-02-10T09:54:55.643Z,127.33
2018-02-10T09:57:24.284Z,140.50
2018-02-10T09:59:52.792Z,131.27
2018-02-10T10:02:21.500Z,141.27
2018-02-10T10:04:50.040Z,125.80
2018-02-10T10:07:18.604Z,125.97
2018-02-10T10:09:47.205Z,116.77
2018-02-10T10:12:15.778Z,122.40
2018-02-10T10:14:45.468Z,127.83
2018-02-10T10:17:13.984Z,125.60
2018-02-10T10:19:42.500Z,127.27
2018-02-10T10:22:11.016Z,120.87
2018-02-10T10:24:39.564Z,129.30
2018-02-10T10:27:08.127Z,122.50
2018-02-10T10:29:36.944Z,122.30
2018-02-10T10:32:05.664Z,114.73
2018-02-10T10:34:34.124Z,122.83
2018-02-10T10:37:02.735Z,116.93
2018-02-10T10:39:31.280Z,124.70
2018-02-10T10:42:06.688Z,113.77
2018-02-10T10:44:35.268Z,111.63
2018-02-10T10:47:03.929Z,121.63
2018-02-10T10:49:32.811Z,118.63
2018-02-10T10:52:01.497Z,118.27
2018-02-10T10:54:30.244Z,117.07
2018-02-10T10:56:59.280Z,110.10
2018-02-10T10:59:27.833Z,112.43
2018-02-10T11:01:57.846Z,111.87
2018-02-10T11:04:26.481Z,109.33
2018-02-10T11:06:55.016Z,104.57
2018-02-10T11:09:24.431Z,116.57
2018-02-10T11:11:52.936Z,107.27
2018-02-10T11:14:21.500Z,113.07
2018-02-10T11:16:50.202Z,103.83
2018-02-10T11:19:19.151Z,98.50
2018-02-10T11:21:47.782Z,109.43
2018-02-10T11:24:16.285Z,107.47
2018-02-10T11:26:44.961Z,102.40
2018-02-10T11:29:13.444Z,99.23
2018-02-10T11:31:42.129Z,99.63
2018-02-10T11:34:10.616Z,104.07
2018-02-10T11:36:39.144Z,103.00
2018-02-10T11:39:07.979Z,111.60
2018-02-10T11:41:36.702Z,106.37
2018-02-10T11:44:05.197Z,96.03
2018-02-10T11:46:34.023Z,104.23
2018-02-10T11:49:02.557Z,88.40
2018-02-10T11:51:31.084Z,105.67
2018-02-10T11:54:00.491Z,83.70
2018-02-10T11:56:29.181Z,89.03
2018-02-10T11:58:58.071Z,87.70
2018-02-10T12:01:26.979Z,94.03
2018-02-10T12:03:55.588Z,80.00
2018-02-10T12:06:24.324Z,84.00
2018-02-10T12:08:52.972Z,84.63
2018-02-10T12:11:21.693Z,87.77
2018-02-10T12:13:50.216Z,86.03
2018-02-10T12:16:18.944Z,86.10
2018-02-10T12:18:47.411Z,85.63
2018-02-10T12:21:16.028Z,89.13
2018-02-10T12:23:44.695Z,89.83
2018-02-10T12:26:13.398Z,91.57
2018-02-10T12:28:42.049Z,91.67
2018-02-10T12:31:10.564Z,89.33
2018-02-10T12:33:39.207Z,99.73
2018-02-10T12:36:07.754Z,95.97
2018-02-10T12:38:36.444Z,99.77
2018-02-10T12:41:05.325Z,97.37
2018-02-10T12:43:33.924Z,99.80
2018-02-10T12:46:02.441Z,99.80
2018-02-10T12:48:36.365Z,82.97
2018-02-10T12:51:05.383Z,87.57
2018-02-10T12:53:34.597Z,95.07
2018-02-10T12:56:03.379Z,101.93
2018-02-10T12:58:32.308Z,83.03
2018-02-10T13:01:00.853Z,87.70
2018-02-10T13:03:29.623Z,86.20
2018-02-10T13:05:58.513Z,102.67
2018-02-10T13:08:27.442Z,87.13
2018-02-10T13:10:56.236Z,91.90
2018-02-10T13:13:25.153Z,101.10
2018-02-10T13:15:53.674Z,97.30
2018-02-10T13:18:22.196Z,88.50
2018-02-10T13:20:50.708Z,100.70
2018-02-10T13:23:19.503Z,96.13
2018-02-10T13:25:48.067Z,107.03
2018-02-10T13:28:17.132Z,101.40
2018-02-10T13:30:45.784Z,92.63
2018-02-10T13:33:14.673Z,93.00
2018-02-10T13:35:43.358Z,85.03
2018-02-10T13:38:11.893Z,77.33
2018-02-10T13:40:40.616Z,76.77
2018-02-10T13:43:09.189Z,75.00
2018-02-10T13:45:37.915Z,80.20
2018-02-10T13:48:06.972Z,72.33
2018-02-10T13:50:35.612Z,75.07
2018-02-10T13:53:04.116Z,76.90
2018-02-10T13:55:32.754Z,77.47
2018-02-10T13:58:01.600Z,79.10
2018-02-10T14:00:30.129Z,82.73
2018-02-10T14:02:58.601Z,90.53
2018-02-10T14:05:27.608Z,83.03
2018-02-10T14:07:56.301Z,78.60
2018-02-10T14:10:25.365Z,83.77
2018-02-10T14:12:54.401Z,84.10
2018-02-10T14:15:23.672Z,88.17
2018-02-10T14:17:52.981Z,88.10
2018-02-10T14:20:22.077Z,83.43
2018-02-10T14:22:50.911Z,90.50
2018-02-10T14:25:19.745Z,86.90
2018-02-10T14:27:48.232Z,85.07
2018-02-10T14:30:16.981Z,99.43
2018-02-10T14:32:45.704Z,93.80
2018-02-10T14:35:14.692Z,101.10
2018-02-10T14:37:43.280Z,98.80
2018-02-10T14:40:12.049Z,93.17
2018-02-10T14:42:40.890Z,91.17
2018-02-10T14:45:10.252Z,89.23
2018-02-10T14:47:38.755Z,91.63
2018-02-10T14:50:07.620Z,96.00
2018-02-10T14:52:36.810Z,87.90
2018-02-10T14:55:05.422Z,96.50
2018-02-10T14:57:34.133Z,92.73
2018-02-10T15:00:03.049Z,97.40
2018-02-10T15:02:32.508Z,97.07
2018-02-10T15:05:01.097Z,99.97
2018-02-10T15:07:31.680Z,88.53
2018-02-10T15:10:02.370Z,100.73
2018-02-10T15:12:32.720Z,94.13
2018-02-10T15:15:04.096Z,95.43
2018-02-10T15:17:32.762Z,88.00
2018-02-10T15:20:01.279Z,93.93
2018-02-10T15:22:29.890Z,92.17
2018-02-10T15:24:58.529Z,106.67
2018-02-10T15:27:27.992Z,100.40
2018-02-10T15:30:05.441Z,101.50
2018-02-10T15:32:45.165Z,100.43
2018-02-10T15:35:17.200Z,101.37
2018-02-10T15:37:45.683Z,102.93
2018-02-10T15:40:14.192Z,100.73
2018-02-10T15:42:42.728Z,99.13
2018-02-10T15:45:11.267Z,93.50
2018-02-10T15:47:39.845Z,95.40
2018-02-10T15:50:08.584Z,95.50
2018-02-10T15:52:39.040Z,97.57
2018-02-10T15:55:07.945Z,100.67
2018-02-10T15:57:36.460Z,99.67
2018-02-10T16:00:08.220Z,97.00
2018-02-10T16:02:36.813Z,105.13
2018-02-10T16:05:05.761Z,100.77
2018-02-10T16:07:34.226Z,93.37
2018-02-10T16:10:02.781Z,96.67
2018-02-10T16:12:31.359Z,93.60
2018-02-10T16:15:00.173Z,88.93
2018-02-10T16:17:28.873Z,99.67
2018-02-10T16:19:57.456Z,100.53
2018-02-10T16:22:26.248Z,92.43
2018-02-10T16:24:54.909Z,91.20
2018-02-10T16:27:23.613Z,105.83
2018-02-10T16:29:52.089Z,94.43
2018-02-10T16:32:20.884Z,99.50
2018-02-10T16:34:49.755Z,96.30
2018-02-10T16:37:18.308Z,97.20
2018-02-10T16:39:46.800Z,98.83
2018-02-10T16:42:15.318Z,95.07
2018-02-10T16:44:58.716Z,89.30
2018-02-10T16:47:27.449Z,101.30
2018-02-10T16:49:56.108Z,95.17
2018-02-10T16:52:24.944Z,102.90
2018-02-10T16:54:53.428Z,95.60
2018-02-10T16:57:22.101Z,97.43
2018-02-10T16:59:50.568Z,101.70
2018-02-10T17:02:19.142Z,106.30
2018-02-10T17:04:47.831Z,109.30
2018-02-10T17:07:16.380Z,99.70
2018-02-10T17:09:45.205Z,100.33
2018-02-10T17:12:13.884Z,106.43
2018-02-10T17:14:44.220Z,113.90
2018-02-10T17:17:12.960Z,105.10
2018-02-10T17:19:41.613Z,115.83
2018-02-10T17:22:10.312Z,104.40
2018-02-10T17:24:39.008Z,109.67
2018-02-10T17:27:07.529Z,111.20
2018-02-10T17:29:36.132Z,109.10
2018-02-10T17:32:04.684Z,101.07
2018-02-10T17:34:33.266Z,103.53
2018-02-10T17:37:01.985Z,103.00
2018-02-10T17:39:30.622Z,105.50
2018-02-10T17:41:59.537Z,96.90
2018-02-10T17:44:28.348Z,105.10
2018-02-10T17:46:56.948Z,103.80
2018-02-10T17:49:25.568Z,95.67
2018-02-10T17:51:54.156Z,90.80
2018-02-10T17:54:23.197Z,94.60
2018-02-10T17:56:51.880Z,97.50
2018-02-10T17:59:20.348Z,86.27
2018-02-10T18:01:49.064Z,90.43
2018-02-10T18:04:17.617Z,82.03
2018-02-10T18:06:46.204Z,87.37
2018-02-10T18:09:14.788Z,86.53
2018-02-10T18:11:43.318Z,87.00
2018-02-10T18:14:11.801Z,95.57
2018-02-10T18:16:40.349Z,82.63
2018-02-10T18:19:08.973Z,89.03
2018-02-10T18:21:37.707Z,84.20
2018-02-10T18:24:06.192Z,86.80
2018-02-10T18:26:34.820Z,91.57
2018-02-10T18:29:03.452Z,92.13
2018-02-10T18:31:32.040Z,83.07
2018-02-10T18:34:01.287Z,87.77
2018-02-10T18:36:31.784Z,84.47
2018-02-10T18:39:00.424Z,86.43
2018-02-10T18:41:29.339Z,89.80
2018-02-10T18:43:58.951Z,90.53
2018-02-10T18:46:29.192Z,81.57
2018-02-10T18:48:58.602Z,88.60
2018-02-10T18:51:27.740Z,89.57
2018-02-10T18:53:58.143Z,92.83
2018-02-10T18:56:28.124Z,101.83
2018-02-10T18:58:58.381Z,91.70
2018-02-10T19:01:28.184Z,87.40
2018-02-10T19:03:58.884Z,86.63
2018-02-10T19:06:27.404Z,91.27
2018-02-10T19:08:55.875Z,78.60
2018-02-10T19:11:27.638Z,89.90
2018-02-10T19:13:56.694Z,76.67
2018-02-10T19:16:26.625Z,83.37
2018-02-10T19:18:55.306Z,98.37
2018-02-10T19:21:24.194Z,89.00
2018-02-10T19:23:52.900Z,94.63
2018-02-10T19:26:21.613Z,102.87
2018-02-10T19:28:50.313Z,86.97
2018-02-10T19:31:19.444Z,92.03
2018-02-10T19:33:48.620Z,96.07
2018-02-10T19:36:17.564Z,87.90
2018-02-10T19:38:46.296Z,71.37
2018-02-10T19:41:14.980Z,82.00
2018-02-10T19:43:43.681Z,84.47
2018-02-10T19:46:12.421Z,82.27
2018-02-10T19:48:41.444Z,86.17
2018-02-10T19:51:10.074Z,85.33
2018-02-10T19:53:38.641Z,83.27
2018-02-10T19:56:07.160Z,84.87
2018-02-10T19:58:35.684Z,84.07
2018-02-10T20:01:04.175Z,87.37
2018-02-10T20:03:32.997Z,88.13
2018-02-10T20:06:05.409Z,82.40
2018-02-10T20:08:34.198Z,81.97
2018-02-10T20:11:03.309Z,82.17
2018-02-10T20:13:31.956Z,84.43
2018-02-10T20:16:00.975Z,95.40
2018-02-10T20:18:29.532Z,86.50
2018-02-10T20:20:58.040Z,86.67
2018-02-10T20:23:26.801Z,78.47
2018-02-10T20:25:58.244Z,87.27
2018-02-10T20:28:27.568Z,81.70
2018-02-10T20:30:56.737Z,75.70
2018-02-10T20:33:27.690Z,89.97
2018-02-10T20:35:57.086Z,84.87
2018-02-10T20:38:25.680Z,84.37
2018-02-10T20:40:54.487Z,79.40
2018-02-10T20:43:23.549Z,88.73
2018-02-10T20:45:52.147Z,89.00
2018-02-10T20:48:21.130Z,77.73
2018-02-10T20:50:50.375Z,83.57
2018-02-10T20:53:19.074Z,86.90
2018-02-10T20:55:47.977Z,77.87
2018-02-10T20:58:16.978Z,87.03
2018-02-10T21:00:45.721Z,84.20
2018-02-10T21:03:14.210Z,79.57
2018-02-10T21:05:42.912Z,87.53
2018-02-10T21:08:11.537Z,81.93
2018-02-10T21:10:40.054Z,79.80
2018-02-10T21:13:08.528Z,82.80
2018-02-10T21:15:37.400Z,82.93
2018-02-10T21:18:13.071Z,87.23
2018-02-10T21:20:43.318Z,83.20
2018-02-10T21:23:14.465Z,79.03
2018-02-10T21:25:43.880Z,77.67
2018-02-10T21:28:12.425Z,86.93
2018-02-10T21:30:41.376Z,79.60
2018-02-10T21:33:10.237Z,86.03
2018-02-10T21:35:39.107Z,76.43
2018-02-10T21:38:07.783Z,83.73
2018-02-10T21:40:36.483Z,82.30
2018-02-10T21:43:08.186Z,83.90
2018-02-10T21:45:38.657Z,71.07
2018-02-10T21:48:07.361Z,91.03
2018-02-10T21:50:35.908Z,82.07
2018-02-10T21:53:04.716Z,75.07
2018-02-10T21:55:33.728Z,76.80
2018-02-10T21:58:02.588Z,80.43
2018-02-10T22:00:31.340Z,80.00
2018-02-10T22:02:59.920Z,76.37
2018-02-10T22:05:28.468Z,82.03
2018-02-10T22:07:57.176Z,84.73
2018-02-10T22:10:25.820Z,84.47
2018-02-10T22:12:54.545Z,84.23
2018-02-10T22:15:24.049Z,82.77
2018-02-10T22:17:54.540Z,77.97
2018-02-10T22:20:23.826Z,88.97
2018-02-10T22:22:53.548Z,81.03
2018-02-10T22:25:22.288Z,81.07
2018-02-10T22:27:52.256Z,78.23
2018-02-10T22:30:21.424Z,73.53
2018-02-10T22:32:49.926Z,83.67
2018-02-10T22:35:18.519Z,94.33
2018-02-10T22:37:47.232Z,86.57
2018-02-10T22:40:16.550Z,87.63
2018-02-10T22:42:45.072Z,82.00
2018-02-10T22:45:13.890Z,86.23
2018-02-10T22:47:42.598Z,82.83
2018-02-10T22:50:11.248Z,100.30
2018-02-10T22:52:39.729Z,86.00
2018-02-10T22:55:09.059Z,83.93
2018-02-10T22:57:37.693Z,86.70
2018-02-10T23:00:06.777Z,84.27
2018-02-10T23:02:35.472Z,87.20
2018-02-10T23:05:05.273Z,90.53
2018-02-10T23:07:39.253Z,89.07
2018-02-10T23:10:11.943Z,88.33
2018-02-10T23:12:41.229Z,82.20
2018-02-10T23:15:10.900Z,89.60
2018-02-10T23:17:40.749Z,90.90
2018-02-10T23:20:09.357Z,86.23
2018-02-10T23:22:37.943Z,83.57
2018-02-10T23:25:06.668Z,91.30
2018-02-10T23:27:35.801Z,85.03
2018-02-10T23:30:04.766Z,100.40
2018-02-10T23:32:34.032Z,83.13
2018-02-10T23:35:02.845Z,96.30
2018-02-10T23:37:32.493Z,81.53
2018-02-10T23:40:01.084Z,81.53
2018-02-10T23:42:30.288Z,91.80
2018-02-10T23:44:59.503Z,88.17
2018-02-10T23:47:28.040Z,83.40
2018-02-10T23:49:56.725Z,94.70
2018-02-10T23:52:26.514Z,85.67
2018-02-10T23:54:56.793Z,96.30
2018-02-10T23:57:26.584Z,86.87
2018-02-10T23:59:55.068Z,78.57
